sensor_id;sensor_type;location;lat;lon;timestamp;pressure;altitude;pressure_sealevel;temperature;humidity
18987;BME280;9627;59.236;18.142;2023-01-28T00:01:37;101809.25;;;-3.80;100.00
18987;BME280;9627;59.236;18.142;2023-01-28T00:04:04;101799.97;;;-3.85;100.00
18987;BME280;9627;59.236;18.142;2023-01-28T00:06:31;101803.41;;;-3.85;100.00
18987;BME280;9627;59.236;18.142;2023-01-28T00:08:58;101810.78;;;-3.76;100.00
18987;BME280;9627;59.236;18.142;2023-01-28T00:11:25;101797.94;;;-3.79;100.00
18987;BME280;9627;59.236;18.142;2023-01-28T00:13:54;101803.28;;;-3.82;100.00
18987;BME280;9627;59.236;18.142;2023-01-28T00:16:21;101799.00;;;-3.83;100.00
18987;BME280;9627;59.236;18.142;2023-01-28T00:18:48;101786.25;;;-3.87;100.00
18987;BME280;9627;59.236;18.142;2023-01-28T00:21:15;101796.28;;;-3.80;100.00
18987;BME280;9627;59.236;18.142;2023-01-28T00:23:45;101785.13;;;-3.82;100.00
18987;BME280;9627;59.236;18.142;2023-01-28T00:26:13;101784.72;;;-3.93;100.00
18987;BME280;9627;59.236;18.142;2023-01-28T00:28:40;101783.44;;;-3.83;100.00
18987;BME280;9627;59.236;18.142;2023-01-28T00:31:10;101769.25;;;-3.94;100.00
18987;BME280;9627;59.236;18.142;2023-01-28T00:33:38;101773.19;;;-3.86;100.00
18987;BME280;9627;59.236;18.142;2023-01-28T00:36:05;101762.31;;;-3.94;100.00
18987;BME280;9627;59.236;18.142;2023-01-28T00:38:32;101767.84;;;-4.01;100.00
18987;BME280;9627;59.236;18.142;2023-01-28T00:41:05;101756.25;;;-3.94;100.00
18987;BME280;9627;59.236;18.142;2023-01-28T00:43:32;101751.44;;;-3.83;100.00
18987;BME280;9627;59.236;18.142;2023-01-28T00:45:59;101757.06;;;-3.73;100.00
18987;BME280;9627;59.236;18.142;2023-01-28T00:48:28;101751.59;;;-3.67;100.00
18987;BME280;9627;59.236;18.142;2023-01-28T00:50:55;101745.72;;;-3.71;100.00
18987;BME280;9627;59.236;18.142;2023-01-28T00:53:22;101740.88;;;-3.60;100.00
18987;BME280;9627;59.236;18.142;2023-01-28T00:55:49;101741.38;;;-3.70;100.00
18987;BME280;9627;59.236;18.142;2023-01-28T00:58:16;101726.50;;;-3.86;100.00
18987;BME280;9627;59.236;18.142;2023-01-28T01:00:43;101723.56;;;-3.78;100.00
18987;BME280;9627;59.236;18.142;2023-01-28T01:03:10;101716.63;;;-3.78;100.00
18987;BME280;9627;59.236;18.142;2023-01-28T01:05:39;101710.16;;;-3.88;100.00
18987;BME280;9627;59.236;18.142;2023-01-28T01:08:06;101715.41;;;-3.89;100.00
18987;BME280;9627;59.236;18.142;2023-01-28T01:10:33;101713.28;;;-4.00;100.00
18987;BME280;9627;59.236;18.142;2023-01-28T01:13:00;101705.22;;;-3.94;100.00
18987;BME280;9627;59.236;18.142;2023-01-28T01:15:27;101708.09;;;-4.00;100.00
18987;BME280;9627;59.236;18.142;2023-01-28T01:17:54;101701.25;;;-4.01;100.00
18987;BME280;9627;59.236;18.142;2023-01-28T01:20:22;101709.22;;;-4.05;100.00
18987;BME280;9627;59.236;18.142;2023-01-28T01:22:51;101701.34;;;-4.04;100.00
18987;BME280;9627;59.236;18.142;2023-01-28T01:25:18;101698.84;;;-4.05;100.00
18987;BME280;9627;59.236;18.142;2023-01-28T01:27:47;101691.25;;;-4.10;100.00
18987;BME280;9627;59.236;18.142;2023-01-28T01:30:14;101697.56;;;-4.15;100.00
18987;BME280;9627;59.236;18.142;2023-01-28T01:32:41;101687.75;;;-4.09;100.00
18987;BME280;9627;59.236;18.142;2023-01-28T01:35:09;101686.84;;;-4.08;100.00
18987;BME280;9627;59.236;18.142;2023-01-28T01:37:36;101676.47;;;-4.08;100.00
18987;BME280;9627;59.236;18.142;2023-01-28T01:40:06;101672.75;;;-4.02;100.00
18987;BME280;9627;59.236;18.142;2023-01-28T01:42:33;101665.03;;;-4.04;100.00
18987;BME280;9627;59.236;18.142;2023-01-28T01:45:01;101661.22;;;-3.95;100.00
18987;BME280;9627;59.236;18.142;2023-01-28T01:47:31;101659.25;;;-3.90;100.00
18987;BME280;9627;59.236;18.142;2023-01-28T01:49:59;101662.38;;;-4.02;100.00
18987;BME280;9627;59.236;18.142;2023-01-28T01:52:29;101649.06;;;-3.95;100.00
18987;BME280;9627;59.236;18.142;2023-01-28T01:54:58;101647.66;;;-4.02;100.00
18987;BME280;9627;59.236;18.142;2023-01-28T01:57:30;101644.44;;;-4.07;100.00
18987;BME280;9627;59.236;18.142;2023-01-28T01:59:57;101644.03;;;-3.98;100.00
18987;BME280;9627;59.236;18.142;2023-01-28T02:02:30;101638.91;;;-3.99;100.00
18987;BME280;9627;59.236;18.142;2023-01-28T02:04:58;101627.75;;;-4.01;100.00
18987;BME280;9627;59.236;18.142;2023-01-28T02:07:25;101632.75;;;-3.97;100.00
18987;BME280;9627;59.236;18.142;2023-01-28T02:09:53;101627.56;;;-3.97;100.00
18987;BME280;9627;59.236;18.142;2023-01-28T02:12:20;101626.03;;;-4.01;100.00
18987;BME280;9627;59.236;18.142;2023-01-28T02:14:50;101620.88;;;-4.02;100.00
18987;BME280;9627;59.236;18.142;2023-01-28T02:17:18;101610.66;;;-3.87;100.00
18987;BME280;9627;59.236;18.142;2023-01-28T02:19:47;101603.78;;;-3.88;100.00
18987;BME280;9627;59.236;18.142;2023-01-28T02:22:21;101590.28;;;-3.77;100.00
18987;BME280;9627;59.236;18.142;2023-01-28T02:24:53;101586.94;;;-3.79;100.00
18987;BME280;9627;59.236;18.142;2023-01-28T02:27:23;101587.50;;;-3.72;100.00
18987;BME280;9627;59.236;18.142;2023-01-28T02:29:57;101580.00;;;-3.79;100.00
18987;BME280;9627;59.236;18.142;2023-01-28T02:32:26;101582.75;;;-3.82;100.00
18987;BME280;9627;59.236;18.142;2023-01-28T02:34:58;101571.59;;;-3.84;100.00
18987;BME280;9627;59.236;18.142;2023-01-28T02:37:28;101558.28;;;-3.76;100.00
18987;BME280;9627;59.236;18.142;2023-01-28T02:40:00;101565.00;;;-3.72;100.00
18987;BME280;9627;59.236;18.142;2023-01-28T02:42:29;101564.63;;;-3.64;100.00
18987;BME280;9627;59.236;18.142;2023-01-28T02:44:58;101569.66;;;-3.61;100.00
18987;BME280;9627;59.236;18.142;2023-01-28T02:47:25;101556.47;;;-3.57;100.00
18987;BME280;9627;59.236;18.142;2023-01-28T02:50:10;101546.91;;;-3.56;100.00
18987;BME280;9627;59.236;18.142;2023-01-28T02:52:51;101548.56;;;-3.72;100.00
18987;BME280;9627;59.236;18.142;2023-01-28T02:55:41;101546.63;;;-3.86;100.00
18987;BME280;9627;59.236;18.142;2023-01-28T02:58:10;101540.31;;;-3.81;100.00
18987;BME280;9627;59.236;18.142;2023-01-28T03:00:49;101542.78;;;-3.78;100.00
18987;BME280;9627;59.236;18.142;2023-01-28T03:03:21;101532.03;;;-3.70;100.00
18987;BME280;9627;59.236;18.142;2023-01-28T03:05:50;101531.25;;;-3.72;100.00
18987;BME280;9627;59.236;18.142;2023-01-28T03:08:32;101524.63;;;-3.60;100.00
18987;BME280;9627;59.236;18.142;2023-01-28T03:11:17;101531.97;;;-3.51;100.00
18987;BME280;9627;59.236;18.142;2023-01-28T03:14:01;101529.44;;;-3.53;100.00
18987;BME280;9627;59.236;18.142;2023-01-28T03:16:46;101524.84;;;-3.48;100.00
18987;BME280;9627;59.236;18.142;2023-01-28T03:19:33;101518.72;;;-3.47;100.00
18987;BME280;9627;59.236;18.142;2023-01-28T03:22:17;101508.13;;;-3.42;100.00
18987;BME280;9627;59.236;18.142;2023-01-28T03:25:01;101508.97;;;-3.42;100.00
18987;BME280;9627;59.236;18.142;2023-01-28T03:27:46;101509.75;;;-3.57;100.00
18987;BME280;9627;59.236;18.142;2023-01-28T03:30:32;101523.16;;;-3.49;100.00
18987;BME280;9627;59.236;18.142;2023-01-28T03:33:20;101511.34;;;-3.37;100.00
18987;BME280;9627;59.236;18.142;2023-01-28T03:36:06;101507.59;;;-3.49;100.00
18987;BME280;9627;59.236;18.142;2023-01-28T03:38:50;101505.63;;;-3.44;100.00
18987;BME280;9627;59.236;18.142;2023-01-28T03:41:19;101490.25;;;-3.31;100.00
18987;BME280;9627;59.236;18.142;2023-01-28T03:43:47;101490.16;;;-3.30;100.00
18987;BME280;9627;59.236;18.142;2023-01-28T03:46:14;101480.50;;;-3.26;100.00
18987;BME280;9627;59.236;18.142;2023-01-28T03:48:42;101475.34;;;-3.28;100.00
18987;BME280;9627;59.236;18.142;2023-01-28T03:51:09;101479.34;;;-3.21;100.00
18987;BME280;9627;59.236;18.142;2023-01-28T03:53:36;101469.75;;;-3.20;100.00
18987;BME280;9627;59.236;18.142;2023-01-28T03:56:04;101462.81;;;-3.20;100.00
18987;BME280;9627;59.236;18.142;2023-01-28T03:58:31;101468.44;;;-3.44;100.00
18987;BME280;9627;59.236;18.142;2023-01-28T04:01:17;101461.88;;;-3.34;100.00
18987;BME280;9627;59.236;18.142;2023-01-28T04:03:45;101460.78;;;-3.30;100.00
18987;BME280;9627;59.236;18.142;2023-01-28T04:06:12;101453.13;;;-3.33;100.00
18987;BME280;9627;59.236;18.142;2023-01-28T04:08:39;101435.75;;;-3.48;100.00
18987;BME280;9627;59.236;18.142;2023-01-28T04:11:16;101434.53;;;-3.41;100.00
18987;BME280;9627;59.236;18.142;2023-01-28T04:13:45;101435.59;;;-3.28;100.00
18987;BME280;9627;59.236;18.142;2023-01-28T04:16:13;101429.00;;;-3.35;100.00
18987;BME280;9627;59.236;18.142;2023-01-28T04:18:40;101422.84;;;-3.33;100.00
18987;BME280;9627;59.236;18.142;2023-01-28T04:21:09;101418.41;;;-3.31;100.00
18987;BME280;9627;59.236;18.142;2023-01-28T04:23:36;101417.47;;;-3.30;100.00
18987;BME280;9627;59.236;18.142;2023-01-28T04:26:03;101418.94;;;-3.24;100.00
18987;BME280;9627;59.236;18.142;2023-01-28T04:28:30;101408.06;;;-3.15;100.00
18987;BME280;9627;59.236;18.142;2023-01-28T04:30:57;101407.88;;;-3.12;100.00
18987;BME280;9627;59.236;18.142;2023-01-28T04:33:24;101404.69;;;-3.17;100.00
18987;BME280;9627;59.236;18.142;2023-01-28T04:35:51;101394.47;;;-3.20;100.00
18987;BME280;9627;59.236;18.142;2023-01-28T04:38:20;101393.16;;;-3.12;100.00
18987;BME280;9627;59.236;18.142;2023-01-28T04:40:50;101385.53;;;-2.99;100.00
18987;BME280;9627;59.236;18.142;2023-01-28T04:43:17;101375.47;;;-2.90;100.00
18987;BME280;9627;59.236;18.142;2023-01-28T04:45:44;101377.41;;;-2.77;100.00
18987;BME280;9627;59.236;18.142;2023-01-28T04:48:11;101364.66;;;-2.82;100.00
18987;BME280;9627;59.236;18.142;2023-01-28T04:50:38;101370.81;;;-2.83;100.00
18987;BME280;9627;59.236;18.142;2023-01-28T04:53:06;101366.03;;;-2.75;100.00
18987;BME280;9627;59.236;18.142;2023-01-28T04:55:34;101359.56;;;-2.68;100.00
18987;BME280;9627;59.236;18.142;2023-01-28T04:58:01;101354.47;;;-2.69;100.00
18987;BME280;9627;59.236;18.142;2023-01-28T05:00:29;101352.34;;;-2.63;100.00
18987;BME280;9627;59.236;18.142;2023-01-28T05:02:56;101349.50;;;-2.58;100.00
18987;BME280;9627;59.236;18.142;2023-01-28T05:05:23;101346.47;;;-2.51;100.00
18987;BME280;9627;59.236;18.142;2023-01-28T05:07:50;101335.31;;;-2.53;100.00
18987;BME280;9627;59.236;18.142;2023-01-28T05:10:17;101346.69;;;-2.40;100.00
18987;BME280;9627;59.236;18.142;2023-01-28T05:12:46;101341.16;;;-2.34;100.00
18987;BME280;9627;59.236;18.142;2023-01-28T05:15:14;101326.28;;;-2.32;100.00
18987;BME280;9627;59.236;18.142;2023-01-28T05:17:41;101316.00;;;-2.19;100.00
18987;BME280;9627;59.236;18.142;2023-01-28T05:20:09;101319.66;;;-2.22;100.00
18987;BME280;9627;59.236;18.142;2023-01-28T05:22:36;101310.09;;;-2.07;100.00
18987;BME280;9627;59.236;18.142;2023-01-28T05:25:03;101307.16;;;-2.01;100.00
18987;BME280;9627;59.236;18.142;2023-01-28T05:27:31;101291.53;;;-2.01;100.00
18987;BME280;9627;59.236;18.142;2023-01-28T05:30:00;101292.31;;;-1.85;100.00
18987;BME280;9627;59.236;18.142;2023-01-28T05:32:27;101286.44;;;-1.74;100.00
18987;BME280;9627;59.236;18.142;2023-01-28T05:34:54;101277.78;;;-1.75;100.00
18987;BME280;9627;59.236;18.142;2023-01-28T05:37:21;101282.44;;;-1.80;100.00
18987;BME280;9627;59.236;18.142;2023-01-28T05:39:48;101275.19;;;-1.75;100.00
18987;BME280;9627;59.236;18.142;2023-01-28T05:42:15;101273.16;;;-1.70;100.00
18987;BME280;9627;59.236;18.142;2023-01-28T05:44:44;101266.91;;;-1.67;100.00
18987;BME280;9627;59.236;18.142;2023-01-28T05:47:13;101280.03;;;-1.55;100.00
18987;BME280;9627;59.236;18.142;2023-01-28T05:49:40;101275.66;;;-1.54;100.00
18987;BME280;9627;59.236;18.142;2023-01-28T05:52:07;101264.59;;;-1.44;100.00
18987;BME280;9627;59.236;18.142;2023-01-28T05:54:34;101264.59;;;-1.30;100.00
18987;BME280;9627;59.236;18.142;2023-01-28T05:57:01;101262.63;;;-1.26;100.00
18987;BME280;9627;59.236;18.142;2023-01-28T05:59:28;101259.53;;;-1.19;100.00
18987;BME280;9627;59.236;18.142;2023-01-28T06:01:55;101255.38;;;-1.09;100.00
18987;BME280;9627;59.236;18.142;2023-01-28T06:04:24;101260.53;;;-1.07;100.00
18987;BME280;9627;59.236;18.142;2023-01-28T06:06:51;101254.38;;;-1.06;100.00
18987;BME280;9627;59.236;18.142;2023-01-28T06:09:18;101243.28;;;-0.96;100.00
18987;BME280;9627;59.236;18.142;2023-01-28T06:11:44;101236.22;;;-0.81;100.00
18987;BME280;9627;59.236;18.142;2023-01-28T06:14:11;101227.06;;;-0.74;100.00
18987;BME280;9627;59.236;18.142;2023-01-28T06:16:38;101226.38;;;-0.63;100.00
18987;BME280;9627;59.236;18.142;2023-01-28T06:19:05;101234.31;;;-0.65;100.00
18987;BME280;9627;59.236;18.142;2023-01-28T06:21:34;101237.31;;;-0.58;100.00
18987;BME280;9627;59.236;18.142;2023-01-28T06:24:01;101234.81;;;-0.60;100.00
18987;BME280;9627;59.236;18.142;2023-01-28T06:26:28;101239.66;;;-0.54;100.00
18987;BME280;9627;59.236;18.142;2023-01-28T06:28:55;101224.19;;;-0.57;100.00
18987;BME280;9627;59.236;18.142;2023-01-28T06:31:22;101228.25;;;-0.53;100.00
18987;BME280;9627;59.236;18.142;2023-01-28T06:33:49;101230.47;;;-0.47;100.00
18987;BME280;9627;59.236;18.142;2023-01-28T06:36:16;101235.06;;;-0.50;100.00
18987;BME280;9627;59.236;18.142;2023-01-28T06:38:45;101243.16;;;-0.55;100.00
18987;BME280;9627;59.236;18.142;2023-01-28T06:41:12;101239.31;;;-0.49;100.00
18987;BME280;9627;59.236;18.142;2023-01-28T06:43:39;101251.84;;;-0.42;100.00
18987;BME280;9627;59.236;18.142;2023-01-28T06:46:06;101227.78;;;-0.33;100.00
18987;BME280;9627;59.236;18.142;2023-01-28T06:48:33;101219.63;;;-0.28;100.00
18987;BME280;9627;59.236;18.142;2023-01-28T06:51:00;101218.16;;;-0.32;100.00
18987;BME280;9627;59.236;18.142;2023-01-28T06:53:27;101219.53;;;-0.27;100.00
18987;BME280;9627;59.236;18.142;2023-01-28T06:55:56;101214.41;;;-0.28;100.00
18987;BME280;9627;59.236;18.142;2023-01-28T06:58:23;101218.81;;;-0.29;100.00
18987;BME280;9627;59.236;18.142;2023-01-28T07:00:51;101212.94;;;-0.32;100.00
18987;BME280;9627;59.236;18.142;2023-01-28T07:03:18;101216.91;;;-0.27;100.00
18987;BME280;9627;59.236;18.142;2023-01-28T07:05:45;101222.69;;;-0.22;100.00
18987;BME280;9627;59.236;18.142;2023-01-28T07:08:12;101213.72;;;-0.18;100.00
18987;BME280;9627;59.236;18.142;2023-01-28T07:10:39;101214.63;;;-0.19;100.00
18987;BME280;9627;59.236;18.142;2023-01-28T07:13:08;101212.13;;;-0.20;100.00
18987;BME280;9627;59.236;18.142;2023-01-28T07:15:35;101214.00;;;-0.22;100.00
18987;BME280;9627;59.236;18.142;2023-01-28T07:18:02;101215.78;;;-0.23;100.00
18987;BME280;9627;59.236;18.142;2023-01-28T07:20:29;101220.38;;;-0.26;100.00
18987;BME280;9627;59.236;18.142;2023-01-28T07:22:56;101214.84;;;-0.22;100.00
18987;BME280;9627;59.236;18.142;2023-01-28T07:25:23;101207.53;;;-0.17;100.00
18987;BME280;9627;59.236;18.142;2023-01-28T07:27:50;101200.22;;;-0.24;100.00
18987;BME280;9627;59.236;18.142;2023-01-28T07:30:20;101201.06;;;-0.24;100.00
18987;BME280;9627;59.236;18.142;2023-01-28T07:32:51;101196.59;;;-0.22;100.00
18987;BME280;9627;59.236;18.142;2023-01-28T07:35:18;101196.59;;;-0.22;100.00
18987;BME280;9627;59.236;18.142;2023-01-28T07:37:49;101196.25;;;-0.17;100.00
18987;BME280;9627;59.236;18.142;2023-01-28T07:40:16;101191.47;;;-0.23;100.00
18987;BME280;9627;59.236;18.142;2023-01-28T07:42:43;101193.75;;;-0.19;100.00
18987;BME280;9627;59.236;18.142;2023-01-28T07:45:10;101197.22;;;-0.18;100.00
18987;BME280;9627;59.236;18.142;2023-01-28T07:47:39;101199.50;;;-0.14;100.00
18987;BME280;9627;59.236;18.142;2023-01-28T07:50:06;101202.44;;;-0.18;100.00
18987;BME280;9627;59.236;18.142;2023-01-28T07:52:35;101203.69;;;-0.24;100.00
18987;BME280;9627;59.236;18.142;2023-01-28T07:55:08;101189.50;;;-0.20;100.00
18987;BME280;9627;59.236;18.142;2023-01-28T07:57:35;101178.31;;;-0.22;100.00
18987;BME280;9627;59.236;18.142;2023-01-28T08:00:02;101173.09;;;-0.22;100.00
18987;BME280;9627;59.236;18.142;2023-01-28T08:02:29;101170.16;;;-0.17;100.00
18987;BME280;9627;59.236;18.142;2023-01-28T08:04:58;101164.53;;;-0.11;100.00
18987;BME280;9627;59.236;18.142;2023-01-28T08:07:26;101163.06;;;-0.15;100.00
18987;BME280;9627;59.236;18.142;2023-01-28T08:09:53;101160.38;;;-0.14;100.00
18987;BME280;9627;59.236;18.142;2023-01-28T08:12:20;101167.66;;;-0.06;100.00
18987;BME280;9627;59.236;18.142;2023-01-28T08:14:47;101163.19;;;-0.17;100.00
18987;BME280;9627;59.236;18.142;2023-01-28T08:17:13;101151.69;;;-0.14;100.00
18987;BME280;9627;59.236;18.142;2023-01-28T08:19:40;101141.38;;;-0.16;100.00
18987;BME280;9627;59.236;18.142;2023-01-28T08:22:09;101138.97;;;-0.19;100.00
18987;BME280;9627;59.236;18.142;2023-01-28T08:24:36;101131.97;;;-0.18;100.00
18987;BME280;9627;59.236;18.142;2023-01-28T08:27:03;101144.91;;;-0.17;100.00
18987;BME280;9627;59.236;18.142;2023-01-28T08:29:31;101142.09;;;-0.14;100.00
18987;BME280;9627;59.236;18.142;2023-01-28T08:31:58;101144.06;;;-0.17;100.00
18987;BME280;9627;59.236;18.142;2023-01-28T08:34:25;101131.56;;;-0.12;100.00
18987;BME280;9627;59.236;18.142;2023-01-28T08:36:52;101124.34;;;-0.09;100.00
18987;BME280;9627;59.236;18.142;2023-01-28T08:39:20;101115.56;;;-0.08;100.00
18987;BME280;9627;59.236;18.142;2023-01-28T08:41:47;101111.00;;;-0.17;100.00
18987;BME280;9627;59.236;18.142;2023-01-28T08:44:14;101116.19;;;-0.17;100.00
18987;BME280;9627;59.236;18.142;2023-01-28T08:46:41;101110.34;;;-0.08;100.00
18987;BME280;9627;59.236;18.142;2023-01-28T08:49:08;101107.13;;;-0.11;100.00
18987;BME280;9627;59.236;18.142;2023-01-28T08:51:35;101107.72;;;-0.08;100.00
18987;BME280;9627;59.236;18.142;2023-01-28T08:54:02;101099.91;;;-0.08;100.00
18987;BME280;9627;59.236;18.142;2023-01-28T08:56:31;101106.81;;;-0.07;100.00
18987;BME280;9627;59.236;18.142;2023-01-28T08:58:58;101097.41;;;-0.09;100.00
18987;BME280;9627;59.236;18.142;2023-01-28T09:01:25;101104.19;;;-0.07;100.00
18987;BME280;9627;59.236;18.142;2023-01-28T09:03:53;101119.53;;;-0.02;100.00
18987;BME280;9627;59.236;18.142;2023-01-28T09:06:20;101116.09;;;-0.03;100.00
18987;BME280;9627;59.236;18.142;2023-01-28T09:08:47;101117.66;;;0.00;100.00
18987;BME280;9627;59.236;18.142;2023-01-28T09:11:14;101101.88;;;0.02;100.00
18987;BME280;9627;59.236;18.142;2023-01-28T09:13:43;101102.50;;;0.05;100.00
18987;BME280;9627;59.236;18.142;2023-01-28T09:16:10;101104.69;;;-0.02;100.00
18987;BME280;9627;59.236;18.142;2023-01-28T09:18:37;101091.63;;;0.11;100.00
18987;BME280;9627;59.236;18.142;2023-01-28T09:21:04;101072.50;;;0.11;100.00
18987;BME280;9627;59.236;18.142;2023-01-28T09:23:32;101072.69;;;0.20;100.00
18987;BME280;9627;59.236;18.142;2023-01-28T09:25:59;101075.38;;;0.31;100.00
18987;BME280;9627;59.236;18.142;2023-01-28T09:28:26;101064.59;;;0.36;100.00
18987;BME280;9627;59.236;18.142;2023-01-28T09:31:01;101058.09;;;0.41;100.00
18987;BME280;9627;59.236;18.142;2023-01-28T09:33:28;101052.69;;;0.55;100.00
18987;BME280;9627;59.236;18.142;2023-01-28T09:35:55;101047.19;;;0.47;100.00
18987;BME280;9627;59.236;18.142;2023-01-28T09:38:22;101055.53;;;0.52;100.00
18987;BME280;9627;59.236;18.142;2023-01-28T09:40:49;101050.22;;;0.65;100.00
18987;BME280;9627;59.236;18.142;2023-01-28T09:43:22;101018.19;;;0.63;100.00
18987;BME280;9627;59.236;18.142;2023-01-28T09:45:52;101018.13;;;0.52;100.00
18987;BME280;9627;59.236;18.142;2023-01-28T09:48:23;101020.97;;;0.49;100.00
18987;BME280;9627;59.236;18.142;2023-01-28T09:50:54;101019.22;;;0.60;100.00
18987;BME280;9627;59.236;18.142;2023-01-28T09:53:22;101013.25;;;0.82;100.00
18987;BME280;9627;59.236;18.142;2023-01-28T09:55:52;101011.91;;;1.33;100.00
18987;BME280;9627;59.236;18.142;2023-01-28T09:58:20;101006.78;;;1.54;100.00
18987;BME280;9627;59.236;18.142;2023-01-28T10:00:50;101000.97;;;2.04;100.00
18987;BME280;9627;59.236;18.142;2023-01-28T10:03:24;101012.06;;;1.97;100.00
18987;BME280;9627;59.236;18.142;2023-01-28T10:05:55;101009.25;;;2.63;100.00
18987;BME280;9627;59.236;18.142;2023-01-28T10:08:29;101010.88;;;2.64;100.00
18987;BME280;9627;59.236;18.142;2023-01-28T10:11:03;101011.09;;;2.09;100.00
18987;BME280;9627;59.236;18.142;2023-01-28T10:13:38;101009.75;;;1.71;100.00
18987;BME280;9627;59.236;18.142;2023-01-28T10:16:18;101003.06;;;1.56;100.00
18987;BME280;9627;59.236;18.142;2023-01-28T10:18:55;100998.06;;;2.50;100.00
18987;BME280;9627;59.236;18.142;2023-01-28T10:21:25;100993.66;;;2.50;100.00
18987;BME280;9627;59.236;18.142;2023-01-28T10:23:56;100996.72;;;2.35;100.00
18987;BME280;9627;59.236;18.142;2023-01-28T10:26:29;101002.00;;;2.24;100.00
18987;BME280;9627;59.236;18.142;2023-01-28T10:28:57;100997.22;;;1.86;100.00
18987;BME280;9627;59.236;18.142;2023-01-28T10:31:28;100976.22;;;1.54;100.00
18987;BME280;9627;59.236;18.142;2023-01-28T10:33:58;100971.47;;;1.48;100.00
18987;BME280;9627;59.236;18.142;2023-01-28T10:36:24;100958.72;;;1.44;100.00
18987;BME280;9627;59.236;18.142;2023-01-28T10:38:52;100960.88;;;1.50;100.00
18987;BME280;9627;59.236;18.142;2023-01-28T10:41:20;100951.16;;;1.83;100.00
18987;BME280;9627;59.236;18.142;2023-01-28T10:43:47;100944.69;;;2.10;100.00
18987;BME280;9627;59.236;18.142;2023-01-28T10:46:15;100945.44;;;2.21;100.00
18987;BME280;9627;59.236;18.142;2023-01-28T10:48:45;100942.50;;;2.15;100.00
18987;BME280;9627;59.236;18.142;2023-01-28T10:51:16;100956.84;;;2.52;100.00
18987;BME280;9627;59.236;18.142;2023-01-28T10:53:44;100962.22;;;2.71;100.00
18987;BME280;9627;59.236;18.142;2023-01-28T10:56:12;100979.91;;;2.90;100.00
18987;BME280;9627;59.236;18.142;2023-01-28T10:58:47;100974.13;;;2.75;100.00
18987;BME280;9627;59.236;18.142;2023-01-28T11:01:16;100970.22;;;2.49;100.00
18987;BME280;9627;59.236;18.142;2023-01-28T11:03:50;100969.84;;;2.53;100.00
18987;BME280;9627;59.236;18.142;2023-01-28T11:06:24;100978.56;;;2.43;100.00
18987;BME280;9627;59.236;18.142;2023-01-28T11:08:52;100964.53;;;2.44;100.00
18987;BME280;9627;59.236;18.142;2023-01-28T11:11:21;100951.47;;;2.33;100.00
18987;BME280;9627;59.236;18.142;2023-01-28T11:13:50;100964.63;;;2.22;100.00
18987;BME280;9627;59.236;18.142;2023-01-28T11:16:17;100964.28;;;2.47;100.00
18987;BME280;9627;59.236;18.142;2023-01-28T11:18:46;100959.66;;;2.39;100.00
18987;BME280;9627;59.236;18.142;2023-01-28T11:21:14;100953.78;;;2.47;100.00
18987;BME280;9627;59.236;18.142;2023-01-28T11:23:48;100945.50;;;2.42;100.00
18987;BME280;9627;59.236;18.142;2023-01-28T11:26:16;100944.38;;;2.24;100.00
18987;BME280;9627;59.236;18.142;2023-01-28T11:28:44;100936.22;;;2.38;100.00
18987;BME280;9627;59.236;18.142;2023-01-28T11:31:11;100940.94;;;2.44;100.00
18987;BME280;9627;59.236;18.142;2023-01-28T11:33:42;100940.13;;;2.64;100.00
18987;BME280;9627;59.236;18.142;2023-01-28T11:36:12;100937.88;;;2.59;100.00
18987;BME280;9627;59.236;18.142;2023-01-28T11:41:24;100930.97;;;2.58;100.00
18987;BME280;9627;59.236;18.142;2023-01-28T11:43:52;100924.75;;;2.59;100.00
18987;BME280;9627;59.236;18.142;2023-01-28T11:46:24;100930.28;;;2.56;100.00
18987;BME280;9627;59.236;18.142;2023-01-28T11:48:58;100914.88;;;2.63;100.00
18987;BME280;9627;59.236;18.142;2023-01-28T11:51:32;100920.16;;;2.52;100.00
18987;BME280;9627;59.236;18.142;2023-01-28T11:56:52;100914.28;;;2.39;100.00
18987;BME280;9627;59.236;18.142;2023-01-28T11:59:24;100914.63;;;2.25;100.00
18987;BME280;9627;59.236;18.142;2023-01-28T12:01:55;100916.25;;;2.26;100.00
18987;BME280;9627;59.236;18.142;2023-01-28T12:04:33;100915.91;;;2.30;100.00
18987;BME280;9627;59.236;18.142;2023-01-28T12:07:19;100897.63;;;2.19;100.00
18987;BME280;9627;59.236;18.142;2023-01-28T12:09:52;100885.03;;;2.34;100.00
18987;BME280;9627;59.236;18.142;2023-01-28T12:15:07;100886.03;;;2.22;100.00
18987;BME280;9627;59.236;18.142;2023-01-28T12:17:45;100872.22;;;2.20;100.00
18987;BME280;9627;59.236;18.142;2023-01-28T12:20:20;100872.00;;;2.23;100.00
18987;BME280;9627;59.236;18.142;2023-01-28T12:23:04;100868.41;;;2.24;100.00
18987;BME280;9627;59.236;18.142;2023-01-28T12:25:46;100862.16;;;2.15;100.00
18987;BME280;9627;59.236;18.142;2023-01-28T12:28:19;100867.25;;;2.17;100.00
18987;BME280;9627;59.236;18.142;2023-01-28T12:33:37;100852.56;;;2.25;100.00
18987;BME280;9627;59.236;18.142;2023-01-28T12:36:12;100863.88;;;2.26;100.00
18987;BME280;9627;59.236;18.142;2023-01-28T12:38:46;100880.56;;;2.25;100.00
18987;BME280;9627;59.236;18.142;2023-01-28T12:41:15;100883.28;;;2.23;100.00
18987;BME280;9627;59.236;18.142;2023-01-28T12:43:49;100885.31;;;2.20;100.00
18987;BME280;9627;59.236;18.142;2023-01-28T12:46:24;100883.91;;;2.16;100.00
18987;BME280;9627;59.236;18.142;2023-01-28T12:48:56;100875.97;;;2.17;100.00
18987;BME280;9627;59.236;18.142;2023-01-28T12:51:26;100862.03;;;2.17;100.00
18987;BME280;9627;59.236;18.142;2023-01-28T12:53:56;100863.16;;;2.24;100.00
18987;BME280;9627;59.236;18.142;2023-01-28T12:56:26;100864.94;;;2.23;100.00
18987;BME280;9627;59.236;18.142;2023-01-28T12:58:55;100873.13;;;2.30;100.00
18987;BME280;9627;59.236;18.142;2023-01-28T13:01:24;100870.59;;;2.19;100.00
18987;BME280;9627;59.236;18.142;2023-01-28T13:03:56;100865.28;;;2.09;100.00
18987;BME280;9627;59.236;18.142;2023-01-28T13:06:29;100860.47;;;2.14;100.00